Time;durP1;ratioP1;P1;durP2;ratioP2;P2;SDS_P1;SDS_P2;PMS_P1;PMS_P2;Temp;Humidity;BMP_temperature;BMP_pressure;BME280_temperature;BME280_humidity;BME280_pressure;Samples;Min_cycle;Max_cycle;Signal;HPM_P1;HPM_P2
2022/02/20 00:01:10;;;;;;;3.97;0.82;;;;;;;;;;5076835;28;20032;-82
2022/02/20 00:03:36;;;;;;;1.70;0.90;;;;;;;;;;5075181;28;20043;-83
2022/02/20 00:06:03;;;;;;;4.15;1.42;;;;;;;;;;5076716;28;20407;-82
2022/02/20 00:08:29;;;;;;;5.82;1.60;;;;;;;;;;5076833;28;20325;-83
2022/02/20 00:10:55;;;;;;;3.00;1.45;;;;;;;;;;5076518;28;20024;-83
2022/02/20 00:13:21;;;;;;;3.03;1.00;;;;;;;;;;5075037;28;20028;-83
2022/02/20 00:15:47;;;;;;;5.15;1.10;;;;;;;;;;5076785;28;20025;-83
2022/02/20 00:18:14;;;;;;;1.85;0.95;;;;;;;;;;5075252;28;20029;-84
2022/02/20 00:20:43;;;;;;;6.57;1.90;;;;;;;;;;5076426;28;20024;-85
2022/02/20 00:23:09;;;;;;;3.83;1.42;;;;;;;;;;5076737;28;20040;-85
2022/02/20 00:25:37;;;;;;;4.18;1.48;;;;;;;;;;5075531;28;20036;-85
2022/02/20 00:28:04;;;;;;;4.28;1.17;;;;;;;;;;5076766;28;20723;-85
2022/02/20 00:30:30;;;;;;;3.60;1.10;;;;;;;;;;5077045;28;20392;-85
2022/02/20 00:33:15;;;;;;;3.20;1.17;;;;;;;;;;5076747;28;20091;-85
2022/02/20 00:35:41;;;;;;;4.88;1.00;;;;;;;;;;5076604;28;20017;-84
2022/02/20 00:38:08;;;;;;;5.40;1.20;;;;;;;;;;5076513;28;20028;-84
2022/02/20 00:40:34;;;;;;;1.83;0.77;;;;;;;;;;5078992;28;20414;-84
2022/02/20 00:43:00;;;;;;;4.10;1.10;;;;;;;;;;5079871;28;20127;-81
2022/02/20 00:45:27;;;;;;;2.97;1.05;;;;;;;;;;5080000;28;20074;-81
2022/02/20 00:48:16;;;;;;;5.05;1.10;;;;;;;;;;5080004;28;20032;-82
2022/02/20 00:50:42;;;;;;;5.13;1.23;;;;;;;;;;5080321;28;20035;-81
2022/02/20 00:53:08;;;;;;;6.03;1.63;;;;;;;;;;5079772;28;20115;-81
2022/02/20 00:55:34;;;;;;;6.63;1.23;;;;;;;;;;5079907;28;20039;-81
2022/02/20 00:58:02;;;;;;;4.63;1.35;;;;;;;;;;5079808;28;20028;-81
2022/02/20 01:00:28;;;;;;;5.57;1.50;;;;;;;;;;5079657;28;20060;-82
2022/02/20 01:02:54;;;;;;;3.92;1.35;;;;;;;;;;5079526;28;20032;-80
2022/02/20 01:05:20;;;;;;;3.47;1.33;;;;;;;;;;5079627;28;20074;-81
2022/02/20 01:07:46;;;;;;;5.55;2.10;;;;;;;;;;5079581;28;20025;-81
2022/02/20 01:10:15;;;;;;;8.25;3.40;;;;;;;;;;5079390;28;20047;-80
2022/02/20 01:12:41;;;;;;;5.93;3.20;;;;;;;;;;5079464;28;20090;-81
2022/02/20 01:15:07;;;;;;;5.45;2.47;;;;;;;;;;5079578;28;20027;-81
2022/02/20 01:17:33;;;;;;;7.80;4.70;;;;;;;;;;5079254;28;20021;-81
2022/02/20 01:19:59;;;;;;;7.65;3.28;;;;;;;;;;5079453;28;20021;-80
2022/02/20 01:22:26;;;;;;;3.55;1.60;;;;;;;;;;5078965;28;20028;-84
2022/02/20 01:24:52;;;;;;;7.22;2.70;;;;;;;;;;5079304;28;20035;-82
2022/02/20 01:27:18;;;;;;;19.23;10.27;;;;;;;;;;5079488;28;20028;-83
2022/02/20 01:29:44;;;;;;;13.45;5.50;;;;;;;;;;5079440;28;20091;-81
2022/02/20 01:32:10;;;;;;;11.57;4.82;;;;;;;;;;5079324;28;20170;-84
2022/02/20 01:34:36;;;;;;;17.35;8.45;;;;;;;;;;5079363;28;20020;-84
2022/02/20 01:37:02;;;;;;;15.10;7.53;;;;;;;;;;5079048;28;20024;-84
2022/02/20 01:39:29;;;;;;;10.15;4.03;;;;;;;;;;5078944;28;20074;-83
2022/02/20 01:41:55;;;;;;;24.63;12.10;;;;;;;;;;5078646;28;20399;-83
2022/02/20 01:44:21;;;;;;;22.50;8.88;;;;;;;;;;5077913;28;20047;-83
2022/02/20 01:46:48;;;;;;;14.77;4.68;;;;;;;;;;5079161;28;20377;-82
2022/02/20 01:49:15;;;;;;;12.07;3.53;;;;;;;;;;5078781;28;20052;-82
2022/02/20 01:51:41;;;;;;;8.65;3.65;;;;;;;;;;5077327;28;20426;-82
2022/02/20 01:54:07;;;;;;;7.97;3.03;;;;;;;;;;5077787;28;20486;-82
2022/02/20 01:56:33;;;;;;;5.53;2.38;;;;;;;;;;5078537;28;20027;-81
2022/02/20 01:59:00;;;;;;;4.22;1.80;;;;;;;;;;5078415;28;20013;-81
2022/02/20 02:01:26;;;;;;;4.72;1.45;;;;;;;;;;5078785;28;20020;-82
2022/02/20 02:03:52;;;;;;;4.50;1.88;;;;;;;;;;5078434;28;20020;-82
2022/02/20 02:06:18;;;;;;;6.50;1.80;;;;;;;;;;5078493;28;20448;-82
2022/02/20 02:08:44;;;;;;;5.05;2.00;;;;;;;;;;5078332;28;20025;-81
2022/02/20 02:11:12;;;;;;;3.75;1.60;;;;;;;;;;5078171;28;20106;-82
2022/02/20 02:13:38;;;;;;;4.57;1.27;;;;;;;;;;5078167;28;20035;-81
2022/02/20 02:16:05;;;;;;;4.78;1.10;;;;;;;;;;5077067;28;20023;-81
2022/02/20 02:21:49;;;;;;;6.78;1.52;;;;;;;;;;5078334;28;20074;-81
2022/02/20 02:24:16;;;;;;;3.05;1.35;;;;;;;;;;5078266;28;20024;-81
2022/02/20 02:26:42;;;;;;;2.83;1.20;;;;;;;;;;5078194;28;20069;-81
2022/02/20 02:29:08;;;;;;;6.30;1.48;;;;;;;;;;5078016;28;20031;-81
2022/02/20 02:31:34;;;;;;;5.05;1.25;;;;;;;;;;5076514;28;20024;-82
2022/02/20 02:34:00;;;;;;;3.05;1.13;;;;;;;;;;5077948;28;20402;-82
2022/02/20 02:36:26;;;;;;;3.13;1.33;;;;;;;;;;5077950;28;20025;-82
2022/02/20 02:38:53;;;;;;;3.85;1.50;;;;;;;;;;5078010;28;20025;-82
2022/02/20 02:41:19;;;;;;;5.75;1.20;;;;;;;;;;5076837;28;20465;-82
2022/02/20 02:43:45;;;;;;;4.68;1.38;;;;;;;;;;5077639;28;20066;-82
2022/02/20 02:46:11;;;;;;;5.57;1.60;;;;;;;;;;5077857;28;20017;-82
2022/02/20 02:48:55;;;;;;;5.05;1.73;;;;;;;;;;5077940;28;20020;-82
2022/02/20 02:51:22;;;;;;;5.53;2.47;;;;;;;;;;5077677;28;20095;-82
2022/02/20 02:53:48;;;;;;;6.05;1.75;;;;;;;;;;5076201;28;20037;-82
2022/02/20 02:56:14;;;;;;;5.70;1.80;;;;;;;;;;5076788;28;20123;-83
2022/02/20 02:58:42;;;;;;;4.72;1.38;;;;;;;;;;5077750;28;20349;-82
2022/02/20 03:01:08;;;;;;;4.25;1.50;;;;;;;;;;5077791;28;20024;-83
2022/02/20 03:03:34;;;;;;;3.67;1.40;;;;;;;;;;5077554;28;20111;-82
2022/02/20 03:06:00;;;;;;;4.45;1.40;;;;;;;;;;5077732;28;20367;-82
2022/02/20 03:08:27;;;;;;;4.22;1.65;;;;;;;;;;5077500;28;20020;-82
2022/02/20 03:10:53;;;;;;;6.93;1.88;;;;;;;;;;5077233;28;20020;-82
2022/02/20 03:13:19;;;;;;;5.30;1.90;;;;;;;;;;5077522;28;20418;-82
2022/02/20 03:15:46;;;;;;;4.60;1.95;;;;;;;;;;5077523;28;20028;-81
2022/02/20 03:21:15;;;;;;;5.45;1.70;;;;;;;;;;5077333;28;20050;-81
2022/02/20 03:23:41;;;;;;;3.83;1.50;;;;;;;;;;5077259;28;20028;-80
2022/02/20 03:26:07;;;;;;;3.55;1.60;;;;;;;;;;5075744;28;20036;-80
2022/02/20 03:28:33;;;;;;;4.82;2.05;;;;;;;;;;5077094;28;20035;-81
2022/02/20 03:30:59;;;;;;;4.10;1.85;;;;;;;;;;5077109;28;20024;-81
2022/02/20 03:33:25;;;;;;;4.05;1.30;;;;;;;;;;5075855;28;20028;-81
2022/02/20 03:35:52;;;;;;;3.63;1.08;;;;;;;;;;5077143;28;20033;-80
2022/02/20 03:38:18;;;;;;;3.88;1.45;;;;;;;;;;5077009;28;20024;-82
2022/02/20 03:40:44;;;;;;;5.15;1.65;;;;;;;;;;5076271;28;20031;-81
2022/02/20 03:43:10;;;;;;;3.97;1.20;;;;;;;;;;5076269;28;20047;-81
2022/02/20 03:45:36;;;;;;;2.95;1.23;;;;;;;;;;5076582;28;20115;-81
2022/02/20 03:48:03;;;;;;;4.88;2.03;;;;;;;;;;5075483;28;20415;-81
2022/02/20 03:50:29;;;;;;;3.90;1.30;;;;;;;;;;5076697;28;20027;-81
2022/02/20 03:52:55;;;;;;;3.33;1.08;;;;;;;;;;5076835;28;20067;-81
2022/02/20 03:55:21;;;;;;;4.10;1.30;;;;;;;;;;5076141;28;20081;-81
2022/02/20 03:57:47;;;;;;;4.28;1.38;;;;;;;;;;5076784;28;20572;-81
2022/02/20 04:00:15;;;;;;;5.30;1.85;;;;;;;;;;5076913;28;20032;-81
2022/02/20 04:02:41;;;;;;;5.65;2.20;;;;;;;;;;5076569;28;20399;-82
2022/02/20 04:05:11;;;;;;;6.57;2.00;;;;;;;;;;5076958;28;20308;-82
2022/02/20 04:07:37;;;;;;;5.07;1.73;;;;;;;;;;5075720;28;20119;-82
2022/02/20 04:10:05;;;;;;;4.90;1.30;;;;;;;;;;5077082;28;20024;-82
2022/02/20 04:12:31;;;;;;;3.45;1.27;;;;;;;;;;5075522;28;20041;-83
2022/02/20 04:14:57;;;;;;;3.95;1.30;;;;;;;;;;5078810;28;20074;-83
2022/02/20 04:17:24;;;;;;;4.38;1.80;;;;;;;;;;5079598;28;20052;-82
2022/02/20 04:19:51;;;;;;;4.30;1.30;;;;;;;;;;5080561;28;20016;-83
2022/02/20 04:22:17;;;;;;;4.38;1.50;;;;;;;;;;5079377;28;20078;-83
2022/02/20 04:24:44;;;;;;;5.10;1.55;;;;;;;;;;5080308;28;20322;-83
2022/02/20 04:27:10;;;;;;;4.93;2.40;;;;;;;;;;5080489;28;20103;-82
2022/02/20 04:29:36;;;;;;;5.10;2.45;;;;;;;;;;5080481;28;20024;-82
2022/02/20 04:32:03;;;;;;;6.15;2.80;;;;;;;;;;5080387;28;20056;-83
2022/02/20 04:34:29;;;;;;;4.00;2.00;;;;;;;;;;5080262;28;20025;-81
2022/02/20 04:36:55;;;;;;;5.20;2.05;;;;;;;;;;5080624;28;20021;-82
2022/02/20 04:39:21;;;;;;;3.10;1.83;;;;;;;;;;5080121;28;20021;-82
2022/02/20 04:41:47;;;;;;;4.95;2.10;;;;;;;;;;5079989;28;20055;-81
2022/02/20 04:44:14;;;;;;;6.32;2.22;;;;;;;;;;5079141;28;20442;-81
2022/02/20 04:46:40;;;;;;;4.57;2.22;;;;;;;;;;5079946;28;20039;-81
2022/02/20 04:49:08;;;;;;;11.93;3.80;;;;;;;;;;5078884;28;20067;-80
2022/02/20 04:51:34;;;;;;;11.05;4.05;;;;;;;;;;5079729;28;20353;-81
2022/02/20 04:54:01;;;;;;;11.60;4.65;;;;;;;;;;5079629;28;20074;-81
2022/02/20 04:56:28;;;;;;;11.50;5.13;;;;;;;;;;5080029;28;20021;-81
2022/02/20 04:58:54;;;;;;;12.55;5.00;;;;;;;;;;5080118;28;20047;-81
2022/02/20 05:01:20;;;;;;;11.18;4.57;;;;;;;;;;5080129;28;20044;-82
2022/02/20 05:03:46;;;;;;;10.70;4.63;;;;;;;;;;5079921;28;20047;-82
2022/02/20 05:06:13;;;;;;;11.70;4.50;;;;;;;;;;5079612;28;20422;-82
2022/02/20 05:08:39;;;;;;;10.65;4.80;;;;;;;;;;5079540;28;20402;-81
2022/02/20 05:11:05;;;;;;;13.80;5.80;;;;;;;;;;5079300;28;20123;-81
2022/02/20 05:13:31;;;;;;;9.07;3.65;;;;;;;;;;5079369;28;20033;-81
2022/02/20 05:15:57;;;;;;;6.35;3.58;;;;;;;;;;5079517;28;20103;-81
2022/02/20 05:18:23;;;;;;;8.25;3.50;;;;;;;;;;5079534;28;20024;-81
2022/02/20 05:20:54;;;;;;;13.77;7.05;;;;;;;;;;5078197;28;20023;-80
2022/02/20 05:23:21;;;;;;;14.07;8.00;;;;;;;;;;5079443;28;20094;-81
2022/02/20 05:25:47;;;;;;;9.25;5.50;;;;;;;;;;5079249;28;20028;-81
2022/02/20 05:28:13;;;;;;;8.50;4.75;;;;;;;;;;5079393;28;20028;-81
2022/02/20 05:30:39;;;;;;;8.02;4.40;;;;;;;;;;5079577;28;20048;-82
2022/02/20 05:33:05;;;;;;;7.60;4.38;;;;;;;;;;5079396;28;20063;-82
2022/02/20 05:35:31;;;;;;;10.23;4.70;;;;;;;;;;5079361;28;20025;-82
2022/02/20 05:37:58;;;;;;;8.27;3.88;;;;;;;;;;5079029;28;20067;-81
2022/02/20 05:40:24;;;;;;;11.32;5.50;;;;;;;;;;5078701;28;20314;-81
2022/02/20 05:42:52;;;;;;;8.73;4.90;;;;;;;;;;5078723;28;20063;-81
2022/02/20 05:45:18;;;;;;;8.77;3.90;;;;;;;;;;5078006;28;20024;-82
2022/02/20 05:47:45;;;;;;;6.93;4.13;;;;;;;;;;5078978;28;20032;-81
2022/02/20 05:50:11;;;;;;;7.32;4.18;;;;;;;;;;5078965;28;20032;-82
2022/02/20 05:52:38;;;;;;;7.78;3.90;;;;;;;;;;5078724;28;20040;-81
2022/02/20 05:55:04;;;;;;;7.47;4.07;;;;;;;;;;5078685;28;20099;-81
2022/02/20 05:57:41;;;;;;;9.30;4.55;;;;;;;;;;5076976;28;20402;-80
2022/02/20 06:00:09;;;;;;;13.25;5.55;;;;;;;;;;5075483;28;20117;-81
2022/02/20 06:02:35;;;;;;;10.40;6.05;;;;;;;;;;5078688;28;20021;-80
2022/02/20 06:05:01;;;;;;;15.38;7.53;;;;;;;;;;5078575;28;20021;-80
2022/02/20 06:07:27;;;;;;;17.08;9.27;;;;;;;;;;5078312;28;20040;-81
2022/02/20 06:09:53;;;;;;;20.60;9.98;;;;;;;;;;5078331;28;20402;-80
2022/02/20 06:12:19;;;;;;;19.70;9.00;;;;;;;;;;5078144;28;20418;-82
2022/02/20 06:14:45;;;;;;;22.40;9.73;;;;;;;;;;5077392;28;20406;-83
2022/02/20 06:17:11;;;;;;;20.10;8.75;;;;;;;;;;5078851;28;20032;-83
2022/02/20 06:22:41;;;;;;;15.93;8.68;;;;;;;;;;5078763;28;20035;-83
2022/02/20 06:25:09;;;;;;;20.05;10.52;;;;;;;;;;5078247;28;20027;-82
2022/02/20 06:27:35;;;;;;;24.55;14.52;;;;;;;;;;5078252;28;20021;-83
2022/02/20 06:30:01;;;;;;;29.48;15.88;;;;;;;;;;5078240;28;20021;-81
2022/02/20 06:32:27;;;;;;;27.15;16.27;;;;;;;;;;5076882;28;20039;-81
2022/02/20 06:34:53;;;;;;;35.17;18.88;;;;;;;;;;5077832;28;20046;-81
2022/02/20 06:37:19;;;;;;;30.92;16.38;;;;;;;;;;5076049;28;20066;-81
2022/02/20 06:39:45;;;;;;;31.92;16.20;;;;;;;;;;5076626;28;20036;-80
2022/02/20 06:42:17;;;;;;;24.02;12.85;;;;;;;;;;5077525;28;20078;-81
2022/02/20 06:44:43;;;;;;;15.50;7.00;;;;;;;;;;5077773;28;20029;-81
2022/02/20 06:47:09;;;;;;;14.63;5.80;;;;;;;;;;5077831;28;20032;-81
2022/02/20 06:52:39;;;;;;;17.70;9.80;;;;;;;;;;5077494;28;20070;-81
2022/02/20 06:55:06;;;;;;;15.52;8.02;;;;;;;;;;5077484;28;20027;-81
2022/02/20 06:57:36;;;;;;;9.98;5.15;;;;;;;;;;5076206;28;20029;-82
2022/02/20 07:00:06;;;;;;;18.38;8.65;;;;;;;;;;5077756;28;20023;-82
2022/02/20 07:02:33;;;;;;;21.63;10.45;;;;;;;;;;5077758;28;20459;-82
2022/02/20 07:04:59;;;;;;;21.50;9.48;;;;;;;;;;5076018;28;20043;-82
2022/02/20 07:07:25;;;;;;;15.43;6.97;;;;;;;;;;5077450;28;20069;-81
2022/02/20 07:09:51;;;;;;;20.20;9.13;;;;;;;;;;5077512;28;20029;-81
2022/02/20 07:12:17;;;;;;;14.48;7.38;;;;;;;;;;5077291;28;20036;-81
2022/02/20 07:14:43;;;;;;;12.02;6.43;;;;;;;;;;5076166;28;20060;-81
2022/02/20 07:17:09;;;;;;;10.50;5.10;;;;;;;;;;5077229;28;20043;-82
2022/02/20 07:19:35;;;;;;;15.40;7.10;;;;;;;;;;5077245;28;20021;-81
2022/02/20 07:22:01;;;;;;;18.17;9.82;;;;;;;;;;5076127;28;20369;-82
2022/02/20 07:24:27;;;;;;;17.85;10.95;;;;;;;;;;5075997;28;20036;-82
2022/02/20 07:26:53;;;;;;;16.05;9.27;;;;;;;;;;5076170;28;20032;-82
2022/02/20 07:29:19;;;;;;;21.40;13.57;;;;;;;;;;5077144;28;20425;-82
2022/02/20 07:31:46;;;;;;;21.17;12.63;;;;;;;;;;5077421;28;20020;-82
2022/02/20 07:34:12;;;;;;;27.33;16.27;;;;;;;;;;5077187;28;20070;-82
2022/02/20 07:36:41;;;;;;;18.30;11.20;;;;;;;;;;5077191;28;20146;-81
2022/02/20 07:39:08;;;;;;;18.90;10.30;;;;;;;;;;5076201;28;20052;-82
2022/02/20 07:41:34;;;;;;;13.48;8.05;;;;;;;;;;5076021;28;20119;-83
2022/02/20 07:44:00;;;;;;;16.08;8.77;;;;;;;;;;5076206;28;20036;-83
2022/02/20 07:46:26;;;;;;;26.33;14.35;;;;;;;;;;5076188;28;20090;-83
2022/02/20 07:48:55;;;;;;;45.08;18.63;;;;;;;;;;5078992;28;20103;-82
2022/02/20 07:51:21;;;;;;;38.38;15.77;;;;;;;;;;5079834;28;20322;-82
2022/02/20 07:53:48;;;;;;;36.17;13.13;;;;;;;;;;5081226;28;20088;-82
2022/02/20 07:56:14;;;;;;;30.38;12.45;;;;;;;;;;5081312;28;20021;-82
2022/02/20 07:58:40;;;;;;;32.17;12.90;;;;;;;;;;5079932;28;20048;-82
2022/02/20 08:01:06;;;;;;;27.55;11.60;;;;;;;;;;5081092;28;20044;-82
2022/02/20 08:03:32;;;;;;;43.88;17.88;;;;;;;;;;5080846;28;20434;-81
2022/02/20 08:05:59;;;;;;;46.70;21.77;;;;;;;;;;5080516;28;20419;-81
2022/02/20 08:08:26;;;;;;;52.00;23.83;;;;;;;;;;5080799;28;20035;-80
2022/02/20 08:10:52;;;;;;;28.52;13.60;;;;;;;;;;5080734;28;20032;-81
2022/02/20 08:13:18;;;;;;;17.02;8.30;;;;;;;;;;5079854;28;20341;-81
2022/02/20 08:15:44;;;;;;;29.63;15.30;;;;;;;;;;5080251;28;20108;-82
2022/02/20 08:18:10;;;;;;;92.63;36.30;;;;;;;;;;5081061;28;20020;-81
2022/02/20 08:20:36;;;;;;;26.27;12.50;;;;;;;;;;5079206;28;20016;-82
2022/02/20 08:23:02;;;;;;;46.50;18.20;;;;;;;;;;5080619;28;20069;-82
2022/02/20 08:25:28;;;;;;;75.80;28.23;;;;;;;;;;5080493;28;20048;-81
2022/02/20 08:27:55;;;;;;;70.50;28.30;;;;;;;;;;5080603;28;20032;-80
2022/02/20 08:30:21;;;;;;;65.15;28.48;;;;;;;;;;5079044;28;20024;-81
2022/02/20 08:32:47;;;;;;;40.13;18.38;;;;;;;;;;5078586;28;20363;-82
2022/02/20 08:35:32;;;;;;;18.38;8.32;;;;;;;;;;5080206;28;20021;-82
2022/02/20 08:37:58;;;;;;;45.38;19.65;;;;;;;;;;5076282;28;20025;-80
2022/02/20 08:40:24;;;;;;;56.70;25.67;;;;;;;;;;5071395;28;20024;-82
2022/02/20 08:42:50;;;;;;;24.88;12.77;;;;;;;;;;5079900;28;20049;-79
2022/02/20 08:45:17;;;;;;;25.33;11.38;;;;;;;;;;5079662;28;20032;-79
2022/02/20 08:47:44;;;;;;;19.42;9.55;;;;;;;;;;5079027;28;20024;-80
2022/02/20 08:50:12;;;;;;;26.00;12.85;;;;;;;;;;5079210;28;20035;-83
2022/02/20 08:52:39;;;;;;;20.88;11.10;;;;;;;;;;5080225;28;20284;-82
2022/02/20 08:55:06;;;;;;;31.33;16.50;;;;;;;;;;5060346;28;20037;-81
2022/02/20 08:57:32;;;;;;;20.48;9.30;;;;;;;;;;5073851;28;20112;-81
2022/02/20 08:59:58;;;;;;;27.38;14.50;;;;;;;;;;5077773;28;20069;-82
2022/02/20 09:02:25;;;;;;;22.05;12.15;;;;;;;;;;5080111;28;20071;-83
2022/02/20 09:04:51;;;;;;;17.38;8.30;;;;;;;;;;5077691;28;20036;-81
2022/02/20 09:07:17;;;;;;;13.48;7.18;;;;;;;;;;5078543;28;20045;-83
2022/02/20 09:09:43;;;;;;;13.70;7.18;;;;;;;;;;5079711;28;20024;-82
2022/02/20 09:12:10;;;;;;;18.92;9.50;;;;;;;;;;5079456;28;20057;-82
2022/02/20 09:14:36;;;;;;;22.98;10.05;;;;;;;;;;5079858;28;20082;-81
2022/02/20 09:17:02;;;;;;;15.52;7.13;;;;;;;;;;5079593;28;20028;-83
2022/02/20 09:19:29;;;;;;;11.30;5.63;;;;;;;;;;5078482;28;20127;-83
2022/02/20 09:21:55;;;;;;;9.20;5.20;;;;;;;;;;5078638;28;20028;-82
2022/02/20 09:24:21;;;;;;;17.90;8.55;;;;;;;;;;5079176;28;20028;-83
2022/02/20 09:26:48;;;;;;;17.50;7.90;;;;;;;;;;5079336;28;20054;-82
2022/02/20 09:29:14;;;;;;;15.35;7.93;;;;;;;;;;5079168;28;20024;-83
2022/02/20 09:31:40;;;;;;;15.15;9.70;;;;;;;;;;5079028;28;20035;-82
2022/02/20 09:34:06;;;;;;;15.43;7.75;;;;;;;;;;5079108;28;20102;-83
2022/02/20 09:36:32;;;;;;;20.60;7.93;;;;;;;;;;5079023;28;20067;-82
2022/02/20 09:38:58;;;;;;;13.77;6.43;;;;;;;;;;5079117;28;20067;-83
2022/02/20 09:41:25;;;;;;;17.63;8.35;;;;;;;;;;5078697;28;20025;-80
2022/02/20 09:43:53;;;;;;;26.20;10.40;;;;;;;;;;5078926;28;20421;-79
2022/02/20 09:46:19;;;;;;;18.45;8.02;;;;;;;;;;5079125;28;20051;-79
2022/02/20 09:48:45;;;;;;;17.13;6.50;;;;;;;;;;5077189;28;20059;-83
2022/02/20 09:51:11;;;;;;;19.98;8.85;;;;;;;;;;5078799;28;20537;-83
2022/02/20 09:53:38;;;;;;;28.13;10.02;;;;;;;;;;5078252;28;20033;-81
2022/02/20 09:56:04;;;;;;;852.55;69.72;;;;;;;;;;5078875;28;20082;-83
2022/02/20 09:58:30;;;;;;;369.15;30.38;;;;;;;;;;5078401;28;20024;-83
2022/02/20 10:00:58;;;;;;;246.07;23.33;;;;;;;;;;5078869;28;20016;-81
2022/02/20 10:03:31;;;;;;;118.25;13.93;;;;;;;;;;5078807;28;20040;-83
2022/02/20 10:05:57;;;;;;;93.03;13.15;;;;;;;;;;5078491;28;20028;-80
2022/02/20 10:08:23;;;;;;;71.35;10.45;;;;;;;;;;5078387;28;20032;-81
2022/02/20 10:10:49;;;;;;;17.55;6.85;;;;;;;;;;5078122;28;20410;-81
2022/02/20 10:13:24;;;;;;;21.95;8.77;;;;;;;;;;5076274;28;20048;-81
2022/02/20 10:15:50;;;;;;;14.70;6.88;;;;;;;;;;5078199;28;20029;-82
2022/02/20 10:18:18;;;;;;;52.33;11.30;;;;;;;;;;5078233;28;20021;-82
2022/02/20 10:20:47;;;;;;;26.13;5.63;;;;;;;;;;5077100;28;20028;-84
2022/02/20 10:23:14;;;;;;;64.15;8.90;;;;;;;;;;5078153;28;20074;-82
2022/02/20 10:25:42;;;;;;;44.78;14.90;;;;;;;;;;5077281;28;20315;-80
2022/02/20 10:28:09;;;;;;;25.33;8.85;;;;;;;;;;5076673;28;20107;-80
2022/02/20 10:30:36;;;;;;;18.85;6.45;;;;;;;;;;5077725;28;20031;-84
2022/02/20 10:33:22;;;;;;;15.35;6.75;;;;;;;;;;5077761;28;20051;-79
2022/02/20 10:35:49;;;;;;;37.50;9.15;;;;;;;;;;5077818;28;20048;-81
2022/02/20 10:38:16;;;;;;;17.40;8.52;;;;;;;;;;5076861;28;20323;-81
2022/02/20 10:40:43;;;;;;;19.58;8.90;;;;;;;;;;5077694;28;20403;-83
2022/02/20 10:43:23;;;;;;;8.68;4.47;;;;;;;;;;5078005;28;20059;-82
2022/02/20 10:45:49;;;;;;;11.52;5.68;;;;;;;;;;5077923;28;20303;-83
2022/02/20 10:48:17;;;;;;;7.20;3.15;;;;;;;;;;5076826;28;20058;-82
2022/02/20 10:50:43;;;;;;;12.63;5.03;;;;;;;;;;5077586;28;20027;-83
2022/02/20 10:53:19;;;;;;;25.80;10.57;;;;;;;;;;5077291;28;20028;-83
2022/02/20 10:55:49;;;;;;;14.93;6.78;;;;;;;;;;5078141;28;20028;-84
2022/02/20 10:58:19;;;;;;;15.40;4.45;;;;;;;;;;5076694;28;20028;-85
2022/02/20 11:00:50;;;;;;;16.23;7.35;;;;;;;;;;5076576;28;20029;-85
2022/02/20 11:03:17;;;;;;;19.65;8.43;;;;;;;;;;5077670;28;20423;-86
2022/02/20 11:05:43;;;;;;;27.95;9.45;;;;;;;;;;5077629;28;20061;-86
2022/02/20 11:08:10;;;;;;;24.02;7.93;;;;;;;;;;5077552;28;20024;-86
2022/02/20 11:10:37;;;;;;;16.25;7.88;;;;;;;;;;5077594;28;20043;-87
2022/02/20 11:13:04;;;;;;;28.10;7.80;;;;;;;;;;5077394;28;20441;-85
2022/02/20 11:15:31;;;;;;;14.75;5.38;;;;;;;;;;5077571;28;20052;-87
2022/02/20 11:17:59;;;;;;;18.13;6.50;;;;;;;;;;5077851;28;20043;-86
2022/02/20 11:20:27;;;;;;;15.88;6.70;;;;;;;;;;5076523;28;20079;-86
2022/02/20 11:22:53;;;;;;;11.00;5.43;;;;;;;;;;5077335;28;20472;-87
2022/02/20 11:25:21;;;;;;;25.05;7.97;;;;;;;;;;5077628;28;20021;-87
2022/02/20 11:27:47;;;;;;;13.88;5.65;;;;;;;;;;5077482;28;20099;-86
2022/02/20 11:30:13;;;;;;;19.10;8.57;;;;;;;;;;5077731;28;20025;-88
2022/02/20 11:32:41;;;;;;;12.65;6.13;;;;;;;;;;5077695;28;20020;-87
2022/02/20 11:35:09;;;;;;;24.05;9.75;;;;;;;;;;5077619;28;20418;-87
2022/02/20 11:37:54;;;;;;;21.23;10.27;;;;;;;;;;5077799;28;20419;-87
2022/02/20 11:40:21;;;;;;;19.55;9.80;;;;;;;;;;5077448;28;20318;-84
2022/02/20 11:43:16;;;;;;;16.55;7.95;;;;;;;;;;5077391;28;20044;-86
2022/02/20 11:46:04;;;;;;;22.00;9.10;;;;;;;;;;5015787;28;20061;-85
2022/02/20 11:48:30;;;;;;;13.48;7.32;;;;;;;;;;5016093;28;20032;-84
2022/02/20 11:51:11;;;;;;;8.90;4.82;;;;;;;;;;5015688;28;20034;-84
2022/02/20 11:53:37;;;;;;;11.18;3.67;;;;;;;;;;5015022;28;20038;-83
2022/02/20 11:56:04;;;;;;;8.68;3.35;;;;;;;;;;5015357;28;20068;-84
2022/02/20 11:58:30;;;;;;;13.73;6.60;;;;;;;;;;5015975;28;20026;-85
2022/02/20 12:00:57;;;;;;;12.55;6.45;;;;;;;;;;5015430;28;20309;-87
2022/02/20 12:03:29;;;;;;;18.45;6.85;;;;;;;;;;5015911;28;20539;-82
2022/02/20 12:05:55;;;;;;;;;;;;;;;;;;5015625;28;20029;-82
2022/02/20 12:08:34;;;;;;;8.15;3.63;;;;;;;;;;5015533;28;19951;-81
2022/02/20 12:11:16;;;;;;;8.35;4.82;;;;;;;;;;5014520;28;20018;-80
2022/02/20 12:13:42;;;;;;;;;;;;;;;;;;5014898;28;20029;-78
2022/02/20 12:16:21;;;;;;;14.68;5.95;;;;;;;;;;5014308;28;19933;-82
2022/02/20 12:19:05;;;;;;;7.55;4.20;;;;;;;;;;5014207;28;20018;-84
2022/02/20 12:21:32;;;;;;;16.20;8.15;;;;;;;;;;5031357;28;20021;-86
2022/02/20 12:24:13;;;;;;;11.40;7.20;;;;;;;;;;5077010;28;20349;-88
2022/02/20 12:26:43;;;;;;;11.98;5.90;;;;;;;;;;5077059;28;20033;-88
2022/02/20 12:29:13;;;;;;;9.07;5.57;;;;;;;;;;5076271;28;20036;-88
2022/02/20 12:31:59;;;;;;;12.93;6.32;;;;;;;;;;5076560;28;20033;-90
2022/02/20 12:34:44;;;;;;;7.95;3.80;;;;;;;;;;5074666;28;20123;-90
2022/02/20 12:37:17;;;;;;;31.92;10.85;;;;;;;;;;5079447;28;20047;-91
2022/02/20 12:39:44;;;;;;;8.35;5.10;;;;;;;;;;5080786;28;20021;-91
2022/02/20 12:42:10;;;;;;;19.90;7.72;;;;;;;;;;5080307;28;20052;-89
2022/02/20 12:44:40;;;;;;;7.82;4.82;;;;;;;;;;5080635;28;20043;-90
2022/02/20 12:47:07;;;;;;;12.93;5.30;;;;;;;;;;5080516;28;20066;-90
2022/02/20 12:49:37;;;;;;;9.02;4.95;;;;;;;;;;5080465;28;20025;-90
2022/02/20 12:52:04;;;;;;;9.27;4.70;;;;;;;;;;5080431;28;20078;-91
2022/02/20 12:54:30;;;;;;;9.38;4.68;;;;;;;;;;5079574;28;20070;-89
2022/02/20 13:08:58;;;;;;;35.13;14.27;;;;;;;;;;5087538;27;20443;-92
2022/02/20 13:11:25;;;;;;;10.43;6.15;;;;;;;;;;5053870;28;20102;-92
2022/02/20 13:13:51;;;;;;;10.73;5.80;;;;;;;;;;5054547;28;20391;-92
2022/02/20 13:16:23;;;;;;;8.18;4.38;;;;;;;;;;5054832;28;20021;-92
2022/02/20 13:18:49;;;;;;;9.27;4.90;;;;;;;;;;5054561;28;20025;-90
2022/02/20 13:21:15;;;;;;;9.90;5.47;;;;;;;;;;5054418;28;20033;-91
2022/02/20 13:23:49;;;;;;;10.82;6.40;;;;;;;;;;5054561;28;20021;-91
2022/02/20 13:26:15;;;;;;;18.90;11.43;;;;;;;;;;5054411;28;20044;-92
2022/02/20 13:28:48;;;;;;;12.85;8.48;;;;;;;;;;5054583;28;20021;-91
2022/02/20 13:31:15;;;;;;;9.73;5.88;;;;;;;;;;5054547;28;20029;-91
2022/02/20 13:33:45;;;;;;;14.02;6.18;;;;;;;;;;5054450;28;20059;-92
2022/02/20 13:36:12;;;;;;;13.63;7.95;;;;;;;;;;5053240;28;20055;-91
2022/02/20 13:38:39;;;;;;;13.02;7.40;;;;;;;;;;5054137;28;20434;-92
2022/02/20 13:41:10;;;;;;;14.85;7.72;;;;;;;;;;5054384;28;20017;-91
2022/02/20 13:43:41;;;;;;;14.60;8.80;;;;;;;;;;5053262;28;20307;-91
2022/02/20 13:46:07;;;;;;;19.70;10.15;;;;;;;;;;5053413;28;20021;-91
2022/02/20 13:48:34;;;;;;;13.82;9.50;;;;;;;;;;5054184;28;20032;-92
2022/02/20 13:51:20;;;;;;;17.58;9.75;;;;;;;;;;5054175;28;20021;-91
2022/02/20 13:53:58;;;;;;;10.02;6.65;;;;;;;;;;5054015;28;20079;-92
2022/02/20 13:56:40;;;;;;;12.52;7.70;;;;;;;;;;5053266;28;20128;-92
2022/02/20 13:59:06;;;;;;;13.77;9.97;;;;;;;;;;5053115;28;20323;-93
2022/02/20 14:01:46;;;;;;;14.20;9.23;;;;;;;;;;5053655;28;20025;-91
2022/02/20 14:04:19;;;;;;;13.95;7.90;;;;;;;;;;5053930;28;20029;-92
2022/02/20 14:06:46;;;;;;;9.52;7.35;;;;;;;;;;5052706;28;20114;-92
2022/02/20 14:09:13;;;;;;;19.33;10.30;;;;;;;;;;5044217;28;20025;-91
2022/02/20 14:11:39;;;;;;;72.10;34.40;;;;;;;;;;5040360;28;20035;-92
2022/02/20 14:14:15;;;;;;;93.35;44.72;;;;;;;;;;5040255;28;20025;-92
2022/02/20 14:16:42;;;;;;;152.05;71.80;;;;;;;;;;5040122;28;20022;-91
2022/02/20 14:19:08;;;;;;;87.32;42.90;;;;;;;;;;5039932;28;20022;-92
2022/02/20 14:21:34;;;;;;;43.53;21.50;;;;;;;;;;5040319;28;20045;-92
2022/02/20 14:24:00;;;;;;;29.20;14.77;;;;;;;;;;5039312;28;20035;-92
2022/02/20 14:26:26;;;;;;;22.13;12.65;;;;;;;;;;5040185;28;20034;-92
2022/02/20 14:28:53;;;;;;;36.90;18.17;;;;;;;;;;5039547;28;20408;-92
2022/02/20 14:31:29;;;;;;;43.28;15.63;;;;;;;;;;5039176;28;20029;-92
2022/02/20 14:33:56;;;;;;;12.90;8.13;;;;;;;;;;5039068;28;20041;-92
2022/02/20 14:36:29;;;;;;;22.48;11.07;;;;;;;;;;5039214;28;20132;-91
2022/02/20 14:38:58;;;;;;;18.88;11.25;;;;;;;;;;5039873;28;20029;-92
2022/02/20 14:41:24;;;;;;;19.25;11.68;;;;;;;;;;5040030;28;20034;-92
2022/02/20 14:43:51;;;;;;;19.35;11.52;;;;;;;;;;5039774;28;20022;-93
2022/02/20 14:46:17;;;;;;;15.02;11.00;;;;;;;;;;5039934;28;20018;-93
2022/02/20 14:48:46;;;;;;;26.10;14.77;;;;;;;;;;5038792;28;20426;-93
2022/02/20 14:51:13;;;;;;;23.90;14.45;;;;;;;;;;5037306;28;20045;-93
2022/02/20 14:53:39;;;;;;;31.50;15.93;;;;;;;;;;5030782;28;20017;-91
2022/02/20 14:56:06;;;;;;;29.40;16.58;;;;;;;;;;5039507;28;20296;-90
2022/02/20 14:58:32;;;;;;;23.92;14.05;;;;;;;;;;5039675;28;20481;-91
2022/02/20 15:00:58;;;;;;;24.30;14.50;;;;;;;;;;5036002;28;20040;-93